sensor_id;sensor_type;location;lat;lon;timestamp;P1;durP1;ratioP1;P2;durP2;ratioP2
16735;SDS011;17990;49.548;9.730;2023-08-21T00:01:37;6.38;;;4.78;;
16735;SDS011;17990;49.548;9.730;2023-08-21T00:04:04;5.13;;;4.60;;
16735;SDS011;17990;49.548;9.730;2023-08-21T00:06:31;5.88;;;4.50;;
16735;SDS011;17990;49.548;9.730;2023-08-21T00:08:58;5.07;;;4.57;;
16735;SDS011;17990;49.548;9.730;2023-08-21T00:11:24;6.25;;;4.72;;
16735;SDS011;17990;49.548;9.730;2023-08-21T00:13:52;7.93;;;4.38;;
16735;SDS011;17990;49.548;9.730;2023-08-21T00:16:19;6.35;;;4.35;;
16735;SDS011;17990;49.548;9.730;2023-08-21T00:18:46;7.65;;;4.80;;
16735;SDS011;17990;49.548;9.730;2023-08-21T00:21:12;7.18;;;4.53;;
16735;SDS011;17990;49.548;9.730;2023-08-21T00:23:39;7.38;;;4.38;;
16735;SDS011;17990;49.548;9.730;2023-08-21T00:26:06;6.55;;;4.68;;
16735;SDS011;17990;49.548;9.730;2023-08-21T00:28:33;5.50;;;4.32;;
16735;SDS011;17990;49.548;9.730;2023-08-21T00:31:01;4.82;;;4.30;;
16735;SDS011;17990;49.548;9.730;2023-08-21T00:33:29;5.68;;;4.10;;
16735;SDS011;17990;49.548;9.730;2023-08-21T00:35:56;5.22;;;4.72;;
16735;SDS011;17990;49.548;9.730;2023-08-21T00:38:23;6.60;;;4.70;;
16735;SDS011;17990;49.548;9.730;2023-08-21T00:40:49;5.68;;;5.03;;
16735;SDS011;17990;49.548;9.730;2023-08-21T00:43:16;6.00;;;5.00;;
16735;SDS011;17990;49.548;9.730;2023-08-21T00:45:44;6.72;;;5.18;;
16735;SDS011;17990;49.548;9.730;2023-08-21T00:48:14;6.82;;;4.90;;
16735;SDS011;17990;49.548;9.730;2023-08-21T00:50:41;6.55;;;5.28;;
16735;SDS011;17990;49.548;9.730;2023-08-21T00:53:08;6.63;;;4.93;;
16735;SDS011;17990;49.548;9.730;2023-08-21T00:55:36;5.13;;;4.63;;
16735;SDS011;17990;49.548;9.730;2023-08-21T00:58:04;8.73;;;5.55;;
16735;SDS011;17990;49.548;9.730;2023-08-21T01:00:31;5.88;;;4.65;;
16735;SDS011;17990;49.548;9.730;2023-08-21T01:03:00;5.55;;;4.97;;
16735;SDS011;17990;49.548;9.730;2023-08-21T01:05:28;8.02;;;5.22;;
16735;SDS011;17990;49.548;9.730;2023-08-21T01:07:56;7.20;;;4.90;;
16735;SDS011;17990;49.548;9.730;2023-08-21T01:10:29;6.25;;;5.00;;
16735;SDS011;17990;49.548;9.730;2023-08-21T01:13:06;5.85;;;5.05;;
16735;SDS011;17990;49.548;9.730;2023-08-21T01:15:40;5.78;;;4.53;;
16735;SDS011;17990;49.548;9.730;2023-08-21T01:18:09;5.70;;;4.80;;
16735;SDS011;17990;49.548;9.730;2023-08-21T01:20:37;10.70;;;5.05;;
16735;SDS011;17990;49.548;9.730;2023-08-21T01:23:05;5.30;;;4.80;;
16735;SDS011;17990;49.548;9.730;2023-08-21T01:25:33;7.57;;;5.20;;
16735;SDS011;17990;49.548;9.730;2023-08-21T01:28:00;5.10;;;4.60;;
16735;SDS011;17990;49.548;9.730;2023-08-21T01:30:27;6.80;;;5.18;;
16735;SDS011;17990;49.548;9.730;2023-08-21T01:32:58;8.97;;;5.10;;
16735;SDS011;17990;49.548;9.730;2023-08-21T01:35:26;6.60;;;4.33;;
16735;SDS011;17990;49.548;9.730;2023-08-21T01:37:56;7.85;;;5.10;;
16735;SDS011;17990;49.548;9.730;2023-08-21T01:40:23;6.60;;;4.63;;
16735;SDS011;17990;49.548;9.730;2023-08-21T01:42:53;6.20;;;4.63;;
16735;SDS011;17990;49.548;9.730;2023-08-21T01:45:20;5.90;;;4.80;;
16735;SDS011;17990;49.548;9.730;2023-08-21T01:47:47;6.95;;;4.78;;
16735;SDS011;17990;49.548;9.730;2023-08-21T01:50:14;5.22;;;4.72;;
16735;SDS011;17990;49.548;9.730;2023-08-21T01:52:40;6.80;;;5.20;;
16735;SDS011;17990;49.548;9.730;2023-08-21T01:55:07;5.78;;;5.07;;
16735;SDS011;17990;49.548;9.730;2023-08-21T01:57:35;6.07;;;5.10;;
16735;SDS011;17990;49.548;9.730;2023-08-21T02:00:04;7.33;;;4.90;;
16735;SDS011;17990;49.548;9.730;2023-08-21T02:02:31;6.17;;;5.03;;
16735;SDS011;17990;49.548;9.730;2023-08-21T02:04:58;6.83;;;4.90;;
16735;SDS011;17990;49.548;9.730;2023-08-21T02:07:25;5.83;;;4.70;;
16735;SDS011;17990;49.548;9.730;2023-08-21T02:09:52;7.23;;;4.80;;
16735;SDS011;17990;49.548;9.730;2023-08-21T02:12:18;7.03;;;5.57;;
16735;SDS011;17990;49.548;9.730;2023-08-21T02:14:45;6.33;;;4.67;;
16735;SDS011;17990;49.548;9.730;2023-08-21T02:17:13;8.20;;;5.20;;
16735;SDS011;17990;49.548;9.730;2023-08-21T02:19:40;9.00;;;5.47;;
16735;SDS011;17990;49.548;9.730;2023-08-21T02:22:07;7.27;;;5.13;;
16735;SDS011;17990;49.548;9.730;2023-08-21T02:24:33;7.13;;;5.30;;
16735;SDS011;17990;49.548;9.730;2023-08-21T02:27:00;7.67;;;5.17;;
16735;SDS011;17990;49.548;9.730;2023-08-21T02:29:28;8.97;;;5.27;;
16735;SDS011;17990;49.548;9.730;2023-08-21T02:31:55;6.90;;;5.13;;
16735;SDS011;17990;49.548;9.730;2023-08-21T02:34:23;5.83;;;5.03;;
16735;SDS011;17990;49.548;9.730;2023-08-21T02:36:49;7.03;;;4.93;;
16735;SDS011;17990;49.548;9.730;2023-08-21T02:39:16;7.17;;;5.53;;
16735;SDS011;17990;49.548;9.730;2023-08-21T02:41:43;5.80;;;5.17;;
16735;SDS011;17990;49.548;9.730;2023-08-21T02:44:09;5.40;;;4.90;;
16735;SDS011;17990;49.548;9.730;2023-08-21T02:46:36;7.33;;;4.83;;
16735;SDS011;17990;49.548;9.730;2023-08-21T02:49:03;5.60;;;4.77;;
16735;SDS011;17990;49.548;9.730;2023-08-21T02:51:31;7.47;;;4.90;;
16735;SDS011;17990;49.548;9.730;2023-08-21T02:53:58;7.03;;;5.33;;
16735;SDS011;17990;49.548;9.730;2023-08-21T02:56:25;7.77;;;5.87;;
16735;SDS011;17990;49.548;9.730;2023-08-21T02:58:51;7.73;;;5.83;;
16735;SDS011;17990;49.548;9.730;2023-08-21T03:01:18;6.37;;;5.27;;
16735;SDS011;17990;49.548;9.730;2023-08-21T03:03:45;7.37;;;5.40;;
16735;SDS011;17990;49.548;9.730;2023-08-21T03:06:12;10.17;;;5.60;;
16735;SDS011;17990;49.548;9.730;2023-08-21T03:08:40;7.93;;;5.67;;
16735;SDS011;17990;49.548;9.730;2023-08-21T03:11:08;6.10;;;5.50;;
16735;SDS011;17990;49.548;9.730;2023-08-21T03:13:35;7.53;;;5.67;;
16735;SDS011;17990;49.548;9.730;2023-08-21T03:16:01;7.33;;;6.30;;
16735;SDS011;17990;49.548;9.730;2023-08-21T03:18:29;7.43;;;5.80;;
16735;SDS011;17990;49.548;9.730;2023-08-21T03:20:57;7.57;;;5.30;;
16735;SDS011;17990;49.548;9.730;2023-08-21T03:23:24;7.87;;;5.80;;
16735;SDS011;17990;49.548;9.730;2023-08-21T03:25:53;8.43;;;4.83;;
16735;SDS011;17990;49.548;9.730;2023-08-21T03:28:19;5.37;;;4.70;;
16735;SDS011;17990;49.548;9.730;2023-08-21T03:30:46;9.10;;;5.70;;
16735;SDS011;17990;49.548;9.730;2023-08-21T03:33:13;7.30;;;5.13;;
16735;SDS011;17990;49.548;9.730;2023-08-21T03:35:39;10.23;;;6.07;;
16735;SDS011;17990;49.548;9.730;2023-08-21T03:38:06;7.00;;;5.20;;
16735;SDS011;17990;49.548;9.730;2023-08-21T03:40:33;6.57;;;5.63;;
16735;SDS011;17990;49.548;9.730;2023-08-21T03:43:01;6.17;;;5.43;;
16735;SDS011;17990;49.548;9.730;2023-08-21T03:45:28;6.87;;;6.00;;
16735;SDS011;17990;49.548;9.730;2023-08-21T03:47:55;7.47;;;5.60;;
16735;SDS011;17990;49.548;9.730;2023-08-21T03:50:22;7.43;;;6.00;;
16735;SDS011;17990;49.548;9.730;2023-08-21T03:52:50;7.83;;;5.77;;
16735;SDS011;17990;49.548;9.730;2023-08-21T03:55:17;6.50;;;5.53;;
16735;SDS011;17990;49.548;9.730;2023-08-21T03:57:44;8.80;;;6.27;;
16735;SDS011;17990;49.548;9.730;2023-08-21T04:00:12;11.27;;;6.00;;
16735;SDS011;17990;49.548;9.730;2023-08-21T04:02:40;6.63;;;5.90;;
16735;SDS011;17990;49.548;9.730;2023-08-21T04:05:07;6.90;;;6.10;;
16735;SDS011;17990;49.548;9.730;2023-08-21T04:07:34;8.20;;;5.90;;
16735;SDS011;17990;49.548;9.730;2023-08-21T04:10:00;5.93;;;5.33;;
16735;SDS011;17990;49.548;9.730;2023-08-21T04:12:27;7.00;;;5.37;;
16735;SDS011;17990;49.548;9.730;2023-08-21T04:14:54;6.53;;;5.70;;
16735;SDS011;17990;49.548;9.730;2023-08-21T04:17:22;6.70;;;5.10;;
16735;SDS011;17990;49.548;9.730;2023-08-21T04:19:50;8.43;;;5.93;;
16735;SDS011;17990;49.548;9.730;2023-08-21T04:22:16;6.93;;;5.83;;
16735;SDS011;17990;49.548;9.730;2023-08-21T04:24:43;6.67;;;5.97;;
16735;SDS011;17990;49.548;9.730;2023-08-21T04:27:10;10.47;;;6.00;;
16735;SDS011;17990;49.548;9.730;2023-08-21T04:29:37;7.37;;;5.30;;
16735;SDS011;17990;49.548;9.730;2023-08-21T04:32:05;6.73;;;5.23;;
16735;SDS011;17990;49.548;9.730;2023-08-21T04:34:33;6.20;;;5.50;;
16735;SDS011;17990;49.548;9.730;2023-08-21T04:37:00;6.97;;;5.47;;
16735;SDS011;17990;49.548;9.730;2023-08-21T04:39:27;10.07;;;6.17;;
16735;SDS011;17990;49.548;9.730;2023-08-21T04:41:54;13.43;;;6.07;;
16735;SDS011;17990;49.548;9.730;2023-08-21T04:44:20;13.63;;;5.57;;
16735;SDS011;17990;49.548;9.730;2023-08-21T04:46:48;15.00;;;5.40;;
16735;SDS011;17990;49.548;9.730;2023-08-21T04:49:15;13.53;;;5.47;;
16735;SDS011;17990;49.548;9.730;2023-08-21T04:51:43;11.00;;;5.67;;
16735;SDS011;17990;49.548;9.730;2023-08-21T04:54:10;7.70;;;5.43;;
16735;SDS011;17990;49.548;9.730;2023-08-21T04:56:37;9.13;;;5.80;;
16735;SDS011;17990;49.548;9.730;2023-08-21T04:59:04;9.07;;;5.73;;
16735;SDS011;17990;49.548;9.730;2023-08-21T05:01:30;7.20;;;6.03;;
16735;SDS011;17990;49.548;9.730;2023-08-21T05:03:57;7.47;;;6.03;;
16735;SDS011;17990;49.548;9.730;2023-08-21T05:06:24;9.10;;;5.77;;
16735;SDS011;17990;49.548;9.730;2023-08-21T05:08:52;6.87;;;5.30;;
16735;SDS011;17990;49.548;9.730;2023-08-21T05:11:18;5.60;;;4.90;;
16735;SDS011;17990;49.548;9.730;2023-08-21T05:13:45;5.40;;;4.83;;
16735;SDS011;17990;49.548;9.730;2023-08-21T05:16:12;8.50;;;4.90;;
16735;SDS011;17990;49.548;9.730;2023-08-21T05:18:39;8.40;;;4.50;;
16735;SDS011;17990;49.548;9.730;2023-08-21T05:21:05;5.60;;;4.70;;
16735;SDS011;17990;49.548;9.730;2023-08-21T05:23:32;6.70;;;4.80;;
16735;SDS011;17990;49.548;9.730;2023-08-21T05:26:00;6.87;;;4.97;;
16735;SDS011;17990;49.548;9.730;2023-08-21T05:28:27;6.30;;;5.13;;
16735;SDS011;17990;49.548;9.730;2023-08-21T05:30:53;12.77;;;5.30;;
16735;SDS011;17990;49.548;9.730;2023-08-21T05:33:20;5.55;;;5.05;;
16735;SDS011;17990;49.548;9.730;2023-08-21T05:35:47;9.87;;;5.97;;
16735;SDS011;17990;49.548;9.730;2023-08-21T05:38:14;7.78;;;5.15;;
16735;SDS011;17990;49.548;9.730;2023-08-21T05:40:40;11.70;;;5.93;;
16735;SDS011;17990;49.548;9.730;2023-08-21T05:43:09;6.97;;;5.30;;
16735;SDS011;17990;49.548;9.730;2023-08-21T05:45:36;7.50;;;5.28;;
16735;SDS011;17990;49.548;9.730;2023-08-21T05:48:03;6.20;;;5.45;;
16735;SDS011;17990;49.548;9.730;2023-08-21T05:50:30;11.52;;;5.68;;
16735;SDS011;17990;49.548;9.730;2023-08-21T05:52:56;14.65;;;7.22;;
16735;SDS011;17990;49.548;9.730;2023-08-21T05:55:23;11.20;;;6.10;;
16735;SDS011;17990;49.548;9.730;2023-08-21T05:57:50;7.20;;;5.57;;
16735;SDS011;17990;49.548;9.730;2023-08-21T06:00:19;6.55;;;4.68;;
16735;SDS011;17990;49.548;9.730;2023-08-21T06:02:45;6.38;;;4.30;;
16735;SDS011;17990;49.548;9.730;2023-08-21T06:05:12;6.22;;;4.78;;
16735;SDS011;17990;49.548;9.730;2023-08-21T06:07:39;6.80;;;4.47;;
16735;SDS011;17990;49.548;9.730;2023-08-21T06:10:06;5.28;;;4.20;;
16735;SDS011;17990;49.548;9.730;2023-08-21T06:12:36;6.97;;;4.53;;
16735;SDS011;17990;49.548;9.730;2023-08-21T06:15:03;6.70;;;4.43;;
16735;SDS011;17990;49.548;9.730;2023-08-21T06:17:34;5.68;;;4.55;;
16735;SDS011;17990;49.548;9.730;2023-08-21T06:20:00;4.80;;;4.30;;
16735;SDS011;17990;49.548;9.730;2023-08-21T06:22:28;5.28;;;4.25;;
16735;SDS011;17990;49.548;9.730;2023-08-21T06:24:54;5.15;;;4.35;;
16735;SDS011;17990;49.548;9.730;2023-08-21T06:27:21;8.02;;;4.82;;
16735;SDS011;17990;49.548;9.730;2023-08-21T06:29:48;7.00;;;4.50;;
16735;SDS011;17990;49.548;9.730;2023-08-21T06:32:15;7.88;;;4.82;;
16735;SDS011;17990;49.548;9.730;2023-08-21T06:34:43;6.28;;;4.55;;
16735;SDS011;17990;49.548;9.730;2023-08-21T06:37:10;5.32;;;3.92;;
16735;SDS011;17990;49.548;9.730;2023-08-21T06:39:37;6.90;;;4.82;;
16735;SDS011;17990;49.548;9.730;2023-08-21T06:42:04;7.50;;;4.07;;
16735;SDS011;17990;49.548;9.730;2023-08-21T06:44:31;6.10;;;4.40;;
16735;SDS011;17990;49.548;9.730;2023-08-21T06:46:58;5.35;;;4.45;;
16735;SDS011;17990;49.548;9.730;2023-08-21T06:49:24;5.78;;;4.68;;
16735;SDS011;17990;49.548;9.730;2023-08-21T06:51:52;5.75;;;4.53;;
16735;SDS011;17990;49.548;9.730;2023-08-21T06:54:19;7.93;;;5.00;;
16735;SDS011;17990;49.548;9.730;2023-08-21T06:56:46;4.70;;;4.28;;
16735;SDS011;17990;49.548;9.730;2023-08-21T06:59:13;9.73;;;5.53;;
16735;SDS011;17990;49.548;9.730;2023-08-21T07:01:40;8.00;;;5.60;;
16735;SDS011;17990;49.548;9.730;2023-08-21T07:04:07;6.82;;;4.93;;
16735;SDS011;17990;49.548;9.730;2023-08-21T07:06:33;8.35;;;5.63;;
16735;SDS011;17990;49.548;9.730;2023-08-21T07:09:01;5.93;;;5.10;;
16735;SDS011;17990;49.548;9.730;2023-08-21T07:11:29;8.27;;;5.20;;
16735;SDS011;17990;49.548;9.730;2023-08-21T07:13:55;6.35;;;5.47;;
16735;SDS011;17990;49.548;9.730;2023-08-21T07:16:23;6.35;;;5.25;;
16735;SDS011;17990;49.548;9.730;2023-08-21T07:18:51;8.82;;;6.20;;
16735;SDS011;17990;49.548;9.730;2023-08-21T07:21:18;6.75;;;5.40;;
16735;SDS011;17990;49.548;9.730;2023-08-21T07:23:45;7.10;;;6.07;;
16735;SDS011;17990;49.548;9.730;2023-08-21T07:26:13;7.30;;;6.28;;
16735;SDS011;17990;49.548;9.730;2023-08-21T07:28:40;6.90;;;6.20;;
16735;SDS011;17990;49.548;9.730;2023-08-21T07:31:06;6.75;;;6.15;;
16735;SDS011;17990;49.548;9.730;2023-08-21T07:33:33;7.93;;;6.30;;
16735;SDS011;17990;49.548;9.730;2023-08-21T07:36:00;11.45;;;6.85;;
16735;SDS011;17990;49.548;9.730;2023-08-21T07:38:28;9.68;;;7.30;;
16735;SDS011;17990;49.548;9.730;2023-08-21T07:41:01;8.00;;;7.20;;
16735;SDS011;17990;49.548;9.730;2023-08-21T07:43:31;8.85;;;6.65;;
16735;SDS011;17990;49.548;9.730;2023-08-21T07:45:58;7.35;;;6.65;;
16735;SDS011;17990;49.548;9.730;2023-08-21T07:48:27;8.30;;;6.60;;
16735;SDS011;17990;49.548;9.730;2023-08-21T07:50:54;7.70;;;6.90;;
16735;SDS011;17990;49.548;9.730;2023-08-21T07:53:21;8.48;;;7.60;;
16735;SDS011;17990;49.548;9.730;2023-08-21T07:55:48;9.93;;;7.05;;
16735;SDS011;17990;49.548;9.730;2023-08-21T07:58:15;7.65;;;6.93;;
16735;SDS011;17990;49.548;9.730;2023-08-21T08:00:43;10.55;;;7.63;;
16735;SDS011;17990;49.548;9.730;2023-08-21T08:03:09;10.50;;;7.38;;
16735;SDS011;17990;49.548;9.730;2023-08-21T08:05:39;9.82;;;8.00;;
16735;SDS011;17990;49.548;9.730;2023-08-21T08:08:06;9.93;;;7.82;;
16735;SDS011;17990;49.548;9.730;2023-08-21T08:10:32;8.18;;;7.38;;
16735;SDS011;17990;49.548;9.730;2023-08-21T08:12:59;9.27;;;7.63;;
16735;SDS011;17990;49.548;9.730;2023-08-21T08:15:26;9.98;;;7.40;;
16735;SDS011;17990;49.548;9.730;2023-08-21T08:17:54;10.25;;;9.23;;
16735;SDS011;17990;49.548;9.730;2023-08-21T08:20:21;9.35;;;8.45;;
16735;SDS011;17990;49.548;9.730;2023-08-21T08:22:48;10.13;;;9.13;;
16735;SDS011;17990;49.548;9.730;2023-08-21T08:25:15;9.18;;;8.35;;
16735;SDS011;17990;49.548;9.730;2023-08-21T08:27:42;9.95;;;8.85;;
16735;SDS011;17990;49.548;9.730;2023-08-21T08:30:09;10.23;;;9.20;;
16735;SDS011;17990;49.548;9.730;2023-08-21T08:32:36;9.75;;;8.82;;
16735;SDS011;17990;49.548;9.730;2023-08-21T08:35:06;13.52;;;8.73;;
16735;SDS011;17990;49.548;9.730;2023-08-21T08:37:34;13.18;;;9.02;;
16735;SDS011;17990;49.548;9.730;2023-08-21T08:40:01;10.02;;;9.02;;
16735;SDS011;17990;49.548;9.730;2023-08-21T08:42:28;10.10;;;9.10;;
16735;SDS011;17990;49.548;9.730;2023-08-21T08:44:55;9.10;;;8.20;;
16735;SDS011;17990;49.548;9.730;2023-08-21T08:47:23;12.95;;;9.32;;
16735;SDS011;17990;49.548;9.730;2023-08-21T08:49:50;10.40;;;9.20;;
16735;SDS011;17990;49.548;9.730;2023-08-21T08:52:20;13.07;;;9.48;;
16735;SDS011;17990;49.548;9.730;2023-08-21T08:54:48;9.57;;;8.63;;
16735;SDS011;17990;49.548;9.730;2023-08-21T08:57:15;9.77;;;8.77;;
16735;SDS011;17990;49.548;9.730;2023-08-21T08:59:42;12.00;;;8.50;;
16735;SDS011;17990;49.548;9.730;2023-08-21T09:02:09;9.88;;;8.88;;
16735;SDS011;17990;49.548;9.730;2023-08-21T09:04:35;9.80;;;8.70;;
16735;SDS011;17990;49.548;9.730;2023-08-21T09:07:08;11.50;;;9.35;;
16735;SDS011;17990;49.548;9.730;2023-08-21T09:09:40;9.93;;;8.75;;
16735;SDS011;17990;49.548;9.730;2023-08-21T09:12:11;14.65;;;8.70;;
16735;SDS011;17990;49.548;9.730;2023-08-21T09:14:38;9.57;;;8.57;;
16735;SDS011;17990;49.548;9.730;2023-08-21T09:17:05;8.70;;;7.88;;
16735;SDS011;17990;49.548;9.730;2023-08-21T09:19:32;8.85;;;7.95;;
16735;SDS011;17990;49.548;9.730;2023-08-21T09:22:00;9.38;;;7.93;;
16735;SDS011;17990;49.548;9.730;2023-08-21T09:24:34;9.43;;;7.72;;
16735;SDS011;17990;49.548;9.730;2023-08-21T09:27:03;11.07;;;7.30;;
16735;SDS011;17990;49.548;9.730;2023-08-21T09:29:37;10.23;;;7.95;;
16735;SDS011;17990;49.548;9.730;2023-08-21T09:32:05;6.85;;;6.20;;
16735;SDS011;17990;49.548;9.730;2023-08-21T09:34:33;7.90;;;6.22;;
16735;SDS011;17990;49.548;9.730;2023-08-21T09:37:01;7.22;;;6.15;;
16735;SDS011;17990;49.548;9.730;2023-08-21T09:39:33;6.47;;;4.82;;
16735;SDS011;17990;49.548;9.730;2023-08-21T09:42:00;6.47;;;4.20;;
16735;SDS011;17990;49.548;9.730;2023-08-21T09:44:34;8.48;;;5.53;;
16735;SDS011;17990;49.548;9.730;2023-08-21T09:47:01;6.38;;;3.83;;
16735;SDS011;17990;49.548;9.730;2023-08-21T09:49:28;7.43;;;4.72;;
16735;SDS011;17990;49.548;9.730;2023-08-21T09:51:56;7.70;;;4.55;;
16735;SDS011;17990;49.548;9.730;2023-08-21T09:54:25;6.32;;;5.15;;
16735;SDS011;17990;49.548;9.730;2023-08-21T09:56:52;7.13;;;4.78;;
16735;SDS011;17990;49.548;9.730;2023-08-21T09:59:20;5.85;;;4.05;;
16735;SDS011;17990;49.548;9.730;2023-08-21T10:01:50;6.07;;;3.92;;
16735;SDS011;17990;49.548;9.730;2023-08-21T10:04:17;5.90;;;4.35;;
16735;SDS011;17990;49.548;9.730;2023-08-21T10:06:45;7.13;;;4.60;;
16735;SDS011;17990;49.548;9.730;2023-08-21T10:09:13;6.10;;;4.63;;
16735;SDS011;17990;49.548;9.730;2023-08-21T10:11:42;4.65;;;4.20;;
16735;SDS011;17990;49.548;9.730;2023-08-21T10:14:09;5.95;;;3.85;;
16735;SDS011;17990;49.548;9.730;2023-08-21T10:16:38;4.25;;;3.85;;
16735;SDS011;17990;49.548;9.730;2023-08-21T10:19:04;6.40;;;4.55;;
16735;SDS011;17990;49.548;9.730;2023-08-21T10:21:34;5.40;;;4.45;;
16735;SDS011;17990;49.548;9.730;2023-08-21T10:24:02;5.65;;;4.90;;
16735;SDS011;17990;49.548;9.730;2023-08-21T10:26:29;7.95;;;5.05;;
16735;SDS011;17990;49.548;9.730;2023-08-21T10:28:58;6.63;;;5.07;;
16735;SDS011;17990;49.548;9.730;2023-08-21T10:31:31;5.20;;;4.70;;
16735;SDS011;17990;49.548;9.730;2023-08-21T10:34:01;6.38;;;4.45;;
16735;SDS011;17990;49.548;9.730;2023-08-21T10:39:31;7.50;;;3.95;;
16735;SDS011;17990;49.548;9.730;2023-08-21T10:42:00;5.15;;;3.80;;
16735;SDS011;17990;49.548;9.730;2023-08-21T10:44:34;4.53;;;3.80;;
16735;SDS011;17990;49.548;9.730;2023-08-21T10:49:47;4.43;;;4.00;;
16735;SDS011;17990;49.548;9.730;2023-08-21T10:52:14;6.45;;;3.67;;
16735;SDS011;17990;49.548;9.730;2023-08-21T10:54:50;3.55;;;3.20;;
16735;SDS011;17990;49.548;9.730;2023-08-21T10:57:21;4.13;;;3.33;;
16735;SDS011;17990;49.548;9.730;2023-08-21T10:59:49;3.70;;;3.30;;
16735;SDS011;17990;49.548;9.730;2023-08-21T11:02:16;6.00;;;3.03;;
16735;SDS011;17990;49.548;9.730;2023-08-21T11:04:43;4.18;;;2.90;;
16735;SDS011;17990;49.548;9.730;2023-08-21T11:07:12;4.43;;;3.00;;
16735;SDS011;17990;49.548;9.730;2023-08-21T11:09:38;4.15;;;3.45;;
16735;SDS011;17990;49.548;9.730;2023-08-21T11:12:06;5.35;;;3.60;;
16735;SDS011;17990;49.548;9.730;2023-08-21T11:14:34;4.35;;;3.10;;
16735;SDS011;17990;49.548;9.730;2023-08-21T11:17:01;6.50;;;3.70;;
16735;SDS011;17990;49.548;9.730;2023-08-21T11:19:29;5.40;;;2.97;;
16735;SDS011;17990;49.548;9.730;2023-08-21T11:21:56;6.70;;;3.30;;
16735;SDS011;17990;49.548;9.730;2023-08-21T11:24:30;3.08;;;2.65;;
16735;SDS011;17990;49.548;9.730;2023-08-21T11:26:57;6.38;;;3.25;;
16735;SDS011;17990;49.548;9.730;2023-08-21T11:29:24;3.33;;;2.78;;
16735;SDS011;17990;49.548;9.730;2023-08-21T11:31:51;6.43;;;3.58;;
16735;SDS011;17990;49.548;9.730;2023-08-21T11:34:19;5.13;;;3.65;;
16735;SDS011;17990;49.548;9.730;2023-08-21T11:36:47;7.20;;;2.90;;
16735;SDS011;17990;49.548;9.730;2023-08-21T11:39:14;4.40;;;3.03;;
16735;SDS011;17990;49.548;9.730;2023-08-21T11:41:54;5.80;;;3.25;;
16735;SDS011;17990;49.548;9.730;2023-08-21T11:44:21;3.90;;;3.08;;
16735;SDS011;17990;49.548;9.730;2023-08-21T11:46:50;6.40;;;3.40;;
16735;SDS011;17990;49.548;9.730;2023-08-21T11:49:18;4.07;;;2.95;;
16735;SDS011;17990;49.548;9.730;2023-08-21T11:51:47;6.30;;;3.30;;
16735;SDS011;17990;49.548;9.730;2023-08-21T11:54:14;4.22;;;2.90;;
16735;SDS011;17990;49.548;9.730;2023-08-21T11:56:43;4.05;;;3.13;;
16735;SDS011;17990;49.548;9.730;2023-08-21T11:59:20;5.13;;;3.17;;
16735;SDS011;17990;49.548;9.730;2023-08-21T12:01:49;4.22;;;3.17;;
16735;SDS011;17990;49.548;9.730;2023-08-21T12:04:16;4.82;;;3.17;;
16735;SDS011;17990;49.548;9.730;2023-08-21T12:06:44;3.72;;;2.60;;
16735;SDS011;17990;49.548;9.730;2023-08-21T12:09:10;4.57;;;3.10;;
16735;SDS011;17990;49.548;9.730;2023-08-21T12:11:37;6.38;;;3.20;;
16735;SDS011;17990;49.548;9.730;2023-08-21T12:14:04;4.43;;;3.00;;
16735;SDS011;17990;49.548;9.730;2023-08-21T12:16:32;5.75;;;3.20;;
16735;SDS011;17990;49.548;9.730;2023-08-21T12:18:59;5.10;;;3.30;;
16735;SDS011;17990;49.548;9.730;2023-08-21T12:21:28;4.03;;;3.25;;
16735;SDS011;17990;49.548;9.730;2023-08-21T12:23:55;3.80;;;3.00;;
16735;SDS011;17990;49.548;9.730;2023-08-21T12:26:22;3.35;;;3.05;;
16735;SDS011;17990;49.548;9.730;2023-08-21T12:28:49;5.75;;;3.13;;
16735;SDS011;17990;49.548;9.730;2023-08-21T12:31:16;3.78;;;3.13;;
16735;SDS011;17990;49.548;9.730;2023-08-21T12:33:44;4.68;;;3.35;;
16735;SDS011;17990;49.548;9.730;2023-08-21T12:36:11;4.97;;;3.00;;
16735;SDS011;17990;49.548;9.730;2023-08-21T12:38:37;3.78;;;3.17;;
16735;SDS011;17990;49.548;9.730;2023-08-21T12:41:04;4.45;;;2.88;;
16735;SDS011;17990;49.548;9.730;2023-08-21T12:43:31;3.75;;;3.03;;
16735;SDS011;17990;49.548;9.730;2023-08-21T12:45:58;5.32;;;2.90;;
16735;SDS011;17990;49.548;9.730;2023-08-21T12:48:25;3.83;;;2.92;;
16735;SDS011;17990;49.548;9.730;2023-08-21T12:50:53;2.72;;;2.50;;
16735;SDS011;17990;49.548;9.730;2023-08-21T12:53:19;5.18;;;3.25;;
16735;SDS011;17990;49.548;9.730;2023-08-21T12:55:46;5.80;;;3.17;;
16735;SDS011;17990;49.548;9.730;2023-08-21T12:58:13;3.22;;;2.95;;
16735;SDS011;17990;49.548;9.730;2023-08-21T13:00:40;4.60;;;3.25;;
16735;SDS011;17990;49.548;9.730;2023-08-21T13:03:07;4.15;;;3.25;;
16735;SDS011;17990;49.548;9.730;2023-08-21T13:05:34;4.32;;;3.10;;
16735;SDS011;17990;49.548;9.730;2023-08-21T13:08:02;3.30;;;2.95;;
16735;SDS011;17990;49.548;9.730;2023-08-21T13:10:29;4.50;;;3.13;;
16735;SDS011;17990;49.548;9.730;2023-08-21T13:12:56;4.15;;;3.25;;
16735;SDS011;17990;49.548;9.730;2023-08-21T13:15:23;4.72;;;3.28;;
16735;SDS011;17990;49.548;9.730;2023-08-21T13:17:49;6.35;;;2.92;;
16735;SDS011;17990;49.548;9.730;2023-08-21T13:20:16;3.55;;;3.10;;
16735;SDS011;17990;49.548;9.730;2023-08-21T13:22:44;5.15;;;3.15;;
16735;SDS011;17990;49.548;9.730;2023-08-21T13:25:15;4.47;;;3.10;;
16735;SDS011;17990;49.548;9.730;2023-08-21T13:27:42;5.18;;;3.40;;
16735;SDS011;17990;49.548;9.730;2023-08-21T13:30:10;3.75;;;2.97;;
16735;SDS011;17990;49.548;9.730;2023-08-21T13:32:37;3.83;;;2.90;;
16735;SDS011;17990;49.548;9.730;2023-08-21T13:35:04;3.30;;;3.00;;
16735;SDS011;17990;49.548;9.730;2023-08-21T13:37:33;5.10;;;3.45;;
16735;SDS011;17990;49.548;9.730;2023-08-21T13:40:00;5.90;;;2.95;;
16735;SDS011;17990;49.548;9.730;2023-08-21T13:42:35;3.78;;;2.90;;
16735;SDS011;17990;49.548;9.730;2023-08-21T13:45:06;5.38;;;3.40;;
16735;SDS011;17990;49.548;9.730;2023-08-21T13:47:34;5.05;;;3.03;;
16735;SDS011;17990;49.548;9.730;2023-08-21T13:50:01;3.42;;;2.60;;
16735;SDS011;17990;49.548;9.730;2023-08-21T13:52:27;3.92;;;2.92;;
16735;SDS011;17990;49.548;9.730;2023-08-21T13:54:54;4.93;;;3.38;;
16735;SDS011;17990;49.548;9.730;2023-08-21T13:57:21;3.70;;;3.08;;
16735;SDS011;17990;49.548;9.730;2023-08-21T13:59:49;3.78;;;2.97;;
16735;SDS011;17990;49.548;9.730;2023-08-21T14:02:15;5.43;;;3.30;;
16735;SDS011;17990;49.548;9.730;2023-08-21T14:04:43;5.95;;;3.10;;
16735;SDS011;17990;49.548;9.730;2023-08-21T14:07:11;6.38;;;3.80;;
16735;SDS011;17990;49.548;9.730;2023-08-21T14:09:38;5.65;;;3.38;;
16735;SDS011;17990;49.548;9.730;2023-08-21T14:12:05;3.78;;;2.97;;
16735;SDS011;17990;49.548;9.730;2023-08-21T14:14:33;6.32;;;3.20;;
16735;SDS011;17990;49.548;9.730;2023-08-21T14:17:01;3.58;;;3.17;;
16735;SDS011;17990;49.548;9.730;2023-08-21T14:19:28;4.13;;;3.47;;
16735;SDS011;17990;49.548;9.730;2023-08-21T14:21:57;5.25;;;3.33;;
16735;SDS011;17990;49.548;9.730;2023-08-21T14:24:24;5.97;;;3.70;;
16735;SDS011;17990;49.548;9.730;2023-08-21T14:26:50;6.47;;;3.25;;
16735;SDS011;17990;49.548;9.730;2023-08-21T14:29:17;4.78;;;3.50;;
16735;SDS011;17990;49.548;9.730;2023-08-21T14:31:44;3.47;;;3.17;;
16735;SDS011;17990;49.548;9.730;2023-08-21T14:34:13;6.45;;;3.33;;
16735;SDS011;17990;49.548;9.730;2023-08-21T14:36:40;3.67;;;3.35;;
16735;SDS011;17990;49.548;9.730;2023-08-21T14:39:07;6.43;;;3.40;;
16735;SDS011;17990;49.548;9.730;2023-08-21T14:41:35;3.45;;;3.15;;
16735;SDS011;17990;49.548;9.730;2023-08-21T14:44:02;4.20;;;3.13;;
16735;SDS011;17990;49.548;9.730;2023-08-21T14:46:30;4.82;;;3.72;;
16735;SDS011;17990;49.548;9.730;2023-08-21T14:48:57;3.95;;;3.15;;
16735;SDS011;17990;49.548;9.730;2023-08-21T14:51:25;4.70;;;3.15;;
16735;SDS011;17990;49.548;9.730;2023-08-21T14:53:52;5.22;;;3.35;;